Time;durP1;ratioP1;P1;durP2;ratioP2;P2;SDS_P1;SDS_P2;PMS_P1;PMS_P2;Temp;Humidity;BMP_temperature;BMP_pressure;BME280_temperature;BME280_humidity;BME280_pressure;Samples;Min_cycle;Max_cycle;Signal;HPM_P1;HPM_P2
2021/07/19 00:00:58;;;;;;;6.65;1.38;;;;;;;;;;4995857;28;20050;-78
2021/07/19 00:03:24;;;;;;;3.45;1.20;;;;;;;;;;4985538;28;20049;-77
2021/07/19 00:05:51;;;;;;;5.18;2.25;;;;;;;;;;4996496;28;20045;-79
2021/07/19 00:08:17;;;;;;;5.10;1.30;;;;;;;;;;5006566;28;20125;-78
2021/07/19 00:10:44;;;;;;;2.53;1.00;;;;;;;;;;4975336;28;20137;-79
2021/07/19 00:13:12;;;;;;;4.93;1.30;;;;;;;;;;5006370;28;20042;-78
2021/07/19 00:15:39;;;;;;;3.42;1.40;;;;;;;;;;4999533;28;20499;-79
2021/07/19 00:18:11;;;;;;;2.55;1.20;;;;;;;;;;5002477;28;20084;-76
2021/07/19 00:20:38;;;;;;;2.90;1.50;;;;;;;;;;5002333;28;20053;-80
2021/07/19 00:23:05;;;;;;;2.00;1.33;;;;;;;;;;4999915;28;20052;-80
2021/07/19 00:25:31;;;;;;;5.10;1.00;;;;;;;;;;4995401;28;20100;-80
2021/07/19 00:28:00;;;;;;;2.47;0.93;;;;;;;;;;4998307;28;20045;-79
2021/07/19 00:30:27;;;;;;;3.88;1.25;;;;;;;;;;5008810;28;20132;-79
2021/07/19 00:32:55;;;;;;;4.35;1.33;;;;;;;;;;5006176;28;20117;-79
2021/07/19 00:35:22;;;;;;;3.78;1.35;;;;;;;;;;5000395;28;20050;-78
2021/07/19 00:37:48;;;;;;;4.10;1.45;;;;;;;;;;5022133;28;20040;-79
2021/07/19 00:40:20;;;;;;;6.05;1.27;;;;;;;;;;5024738;28;20077;-79
2021/07/19 00:42:47;;;;;;;3.15;1.40;;;;;;;;;;4992067;28;20049;-78
2021/07/19 00:45:18;;;;;;;5.25;1.42;;;;;;;;;;4995146;28;20080;-79
2021/07/19 00:47:46;;;;;;;4.07;1.33;;;;;;;;;;4994753;28;20049;-78
2021/07/19 00:50:14;;;;;;;5.65;1.50;;;;;;;;;;4996756;28;20042;-79
2021/07/19 00:52:40;;;;;;;5.35;1.27;;;;;;;;;;5005061;28;20503;-79
2021/07/19 00:55:10;;;;;;;2.00;0.90;;;;;;;;;;5000741;28;20042;-79
2021/07/19 00:57:39;;;;;;;5.30;1.42;;;;;;;;;;5013244;28;20172;-78
2021/07/19 01:00:09;;;;;;;;;;;;;;;;;;5016914;28;21369;-79
2021/07/19 01:02:38;;;;;;;2.88;1.13;;;;;;;;;;5019281;28;19921;-79
2021/07/19 01:05:07;;;;;;;3.33;1.23;;;;;;;;;;5037813;28;20506;-79
2021/07/19 01:07:37;;;;;;;3.63;1.25;;;;;;;;;;4999063;28;20103;-78
2021/07/19 01:10:14;;;;;;;6.35;1.30;;;;;;;;;;5035566;28;20204;-79
2021/07/19 01:12:50;;;;;;;5.78;1.50;;;;;;;;;;5019788;28;20073;-79
2021/07/19 01:15:17;;;;;;;5.15;1.15;;;;;;;;;;5019647;28;20125;-79
2021/07/19 01:17:44;;;;;;;4.22;1.52;;;;;;;;;;5002912;28;20073;-79
2021/07/19 01:20:11;;;;;;;3.20;0.98;;;;;;;;;;4983199;28;20042;-79
2021/07/19 01:22:48;;;;;;;3.38;1.30;;;;;;;;;;4995009;28;20404;-79
2021/07/19 01:25:29;;;;;;;2.78;1.10;;;;;;;;;;4999589;28;20046;-78
2021/07/19 01:28:08;;;;;;;3.30;1.10;;;;;;;;;;5009798;28;20041;-80
2021/07/19 02:04:22;;;;;;;6.90;1.25;;;;;;;;;;5023307;27;2854354;-83
2021/07/19 02:06:50;;;;;;;6.35;1.67;;;;;;;;;;5098729;27;20047;-83
2021/07/19 02:09:18;;;;;;;5.60;1.30;;;;;;;;;;5114531;27;20054;-83
2021/07/19 02:11:47;;;;;;;5.82;1.52;;;;;;;;;;5087717;27;20134;-84
2021/07/19 02:14:14;;;;;;;5.65;0.98;;;;;;;;;;5104817;27;20049;-81
2021/07/19 02:16:49;;;;;;;5.50;1.02;;;;;;;;;;5118485;27;20088;-83
2021/07/19 02:19:17;;;;;;;6.68;1.13;;;;;;;;;;5117694;27;20031;-84
2021/07/19 02:21:45;;;;;;;5.80;0.98;;;;;;;;;;5108012;27;20058;-84
2021/07/19 02:24:12;;;;;;;1.77;0.88;;;;;;;;;;5096537;27;20504;-82
2021/07/19 02:26:39;;;;;;;1.88;0.60;;;;;;;;;;5103158;27;20081;-84
2021/07/19 02:29:06;;;;;;;7.53;1.10;;;;;;;;;;5118938;27;20055;-84
2021/07/19 02:31:34;;;;;;;4.43;0.70;;;;;;;;;;5105630;27;20044;-83
2021/07/19 02:34:02;;;;;;;6.55;0.93;;;;;;;;;;5087686;28;20040;-83
2021/07/19 02:36:29;;;;;;;3.92;0.70;;;;;;;;;;5113588;27;20805;-83
2021/07/19 02:38:56;;;;;;;1.77;0.50;;;;;;;;;;5107157;27;20051;-82
2021/07/19 02:41:28;;;;;;;1.60;0.70;;;;;;;;;;5106224;27;20124;-82
2021/07/19 02:43:59;;;;;;;3.22;0.60;;;;;;;;;;5097923;27;20047;-81
2021/07/19 02:46:27;;;;;;;7.05;0.90;;;;;;;;;;5073483;28;20051;-85
2021/07/19 02:48:56;;;;;;;2.67;0.68;;;;;;;;;;5097431;27;20044;-85
2021/07/19 02:51:25;;;;;;;8.40;3.25;;;;;;;;;;4995592;28;87876;-85
2021/07/19 02:53:52;;;;;;;2.08;0.73;;;;;;;;;;5052524;28;20110;-82
2021/07/19 02:56:23;;;;;;;3.88;0.60;;;;;;;;;;5057472;28;20532;-85
2021/07/19 02:58:51;;;;;;;3.15;0.65;;;;;;;;;;5047866;28;20049;-86
2021/07/19 03:01:23;;;;;;;2.47;0.60;;;;;;;;;;5056186;28;20525;-86
2021/07/19 03:03:51;;;;;;;2.92;0.90;;;;;;;;;;5058107;28;20417;-83
2021/07/19 03:06:22;;;;;;;4.32;0.63;;;;;;;;;;5074477;28;25042;-86
2021/07/19 03:08:49;;;;;;;5.38;0.80;;;;;;;;;;5083624;28;20500;-85
2021/07/19 03:11:26;;;;;;;1.10;0.60;;;;;;;;;;5073627;28;20048;-84
2021/07/19 03:14:00;;;;;;;2.70;0.50;;;;;;;;;;5053206;28;20045;-84
2021/07/19 03:16:28;;;;;;;3.22;0.70;;;;;;;;;;5045082;28;20233;-81
2021/07/19 03:18:58;;;;;;;4.10;1.10;;;;;;;;;;5044644;28;20051;-84
2021/07/19 03:21:26;;;;;;;3.85;0.50;;;;;;;;;;5065798;28;20052;-82
2021/07/19 03:23:54;;;;;;;5.82;0.70;;;;;;;;;;5040484;28;20115;-80
2021/07/19 03:26:22;;;;;;;1.17;0.60;;;;;;;;;;5045224;28;20037;-82
2021/07/19 03:28:49;;;;;;;4.13;0.70;;;;;;;;;;5046211;28;20091;-85
2021/07/19 03:31:18;;;;;;;3.05;0.98;;;;;;;;;;5048787;28;20120;-85
2021/07/19 03:33:45;;;;;;;2.47;0.77;;;;;;;;;;5047256;28;20065;-85
2021/07/19 03:36:13;;;;;;;3.47;0.52;;;;;;;;;;5043219;28;20517;-85
2021/07/19 03:38:41;;;;;;;4.88;0.85;;;;;;;;;;5044838;28;20053;-83
2021/07/19 03:41:09;;;;;;;3.83;1.17;;;;;;;;;;5045857;28;20040;-85
2021/07/19 03:43:35;;;;;;;4.82;1.02;;;;;;;;;;5044162;28;20072;-80
2021/07/19 03:46:03;;;;;;;2.53;0.70;;;;;;;;;;5042926;28;20445;-84
2021/07/19 03:48:31;;;;;;;2.95;0.68;;;;;;;;;;5043221;28;20127;-84
2021/07/19 03:50:58;;;;;;;1.48;0.50;;;;;;;;;;5044468;28;20040;-85
2021/07/19 03:53:25;;;;;;;2.45;0.52;;;;;;;;;;5045939;28;20503;-85
2021/07/19 03:55:52;;;;;;;7.28;1.23;;;;;;;;;;5046143;28;20055;-82
2021/07/19 03:58:19;;;;;;;2.70;0.60;;;;;;;;;;5044634;28;20075;-84
2021/07/19 04:00:46;;;;;;;5.00;0.88;;;;;;;;;;5043792;28;20045;-81
2021/07/19 04:03:19;;;;;;;6.68;0.88;;;;;;;;;;5045265;28;20064;-84
2021/07/19 04:05:49;;;;;;;2.47;0.57;;;;;;;;;;5065164;28;20055;-84
2021/07/19 04:08:16;;;;;;;2.63;0.73;;;;;;;;;;5062897;28;20406;-81
2021/07/19 04:10:44;;;;;;;3.75;1.05;;;;;;;;;;5064921;28;20068;-82
2021/07/19 04:13:11;;;;;;;3.03;0.52;;;;;;;;;;5046821;28;20043;-83
2021/07/19 04:15:45;;;;;;;1.98;0.40;;;;;;;;;;5064682;28;20036;-83
2021/07/19 04:18:12;;;;;;;4.13;0.70;;;;;;;;;;5063446;28;20422;-83
2021/07/19 04:20:42;;;;;;;3.00;0.73;;;;;;;;;;5058316;28;20037;-83
2021/07/19 04:23:14;;;;;;;3.42;0.77;;;;;;;;;;5064686;28;20533;-84
2021/07/19 04:25:42;;;;;;;3.53;0.80;;;;;;;;;;5062873;28;20064;-82
2021/07/19 04:28:08;;;;;;;2.97;0.60;;;;;;;;;;5064194;28;20491;-83
2021/07/19 04:30:37;;;;;;;5.38;0.80;;;;;;;;;;5063534;28;20052;-81
2021/07/19 04:33:05;;;;;;;3.30;0.85;;;;;;;;;;5063085;28;20060;-82
2021/07/19 04:35:32;;;;;;;2.95;0.75;;;;;;;;;;5062302;28;20092;-80
2021/07/19 04:37:58;;;;;;;3.22;0.70;;;;;;;;;;5072108;28;20064;-84
2021/07/19 04:40:26;;;;;;;2.50;0.70;;;;;;;;;;5064955;28;20143;-81
2021/07/19 04:42:55;;;;;;;3.22;0.60;;;;;;;;;;5071485;28;20064;-82
2021/07/19 04:45:21;;;;;;;2.08;0.73;;;;;;;;;;5067398;28;20037;-87
2021/07/19 04:47:49;;;;;;;3.35;0.80;;;;;;;;;;5067240;28;20079;-89
2021/07/19 04:50:18;;;;;;;2.35;0.90;;;;;;;;;;5065290;28;20415;-86
2021/07/19 04:52:45;;;;;;;3.25;0.60;;;;;;;;;;5066856;28;20044;-88
2021/07/19 04:55:17;;;;;;;3.15;0.55;;;;;;;;;;5072676;28;20147;-86
2021/07/19 04:57:45;;;;;;;4.13;1.13;;;;;;;;;;5066885;28;20040;-88
2021/07/19 05:00:13;;;;;;;1.63;0.98;;;;;;;;;;5063443;28;20131;-83
2021/07/19 05:02:41;;;;;;;5.10;0.80;;;;;;;;;;5056917;28;20120;-87
2021/07/19 05:05:14;;;;;;;5.30;0.95;;;;;;;;;;5046118;28;20091;-87
2021/07/19 05:07:43;;;;;;;6.53;0.82;;;;;;;;;;5044785;28;20060;-82
2021/07/19 05:10:13;;;;;;;4.32;1.50;;;;;;;;;;5046140;28;20047;-87
2021/07/19 05:12:46;;;;;;;0.63;0.40;;;;;;;;;;5064771;28;20123;-86
2021/07/19 05:15:14;;;;;;;6.38;1.40;;;;;;;;;;5064641;28;20068;-88
2021/07/19 05:17:42;;;;;;;2.13;0.90;;;;;;;;;;5064728;28;20044;-86
2021/07/19 05:20:20;;;;;;;4.20;1.30;;;;;;;;;;5065133;28;20039;-88
2021/07/19 05:22:52;;;;;;;6.43;2.00;;;;;;;;;;5061689;28;20036;-82
2021/07/19 05:25:30;;;;;;;6.50;2.17;;;;;;;;;;5044138;28;20037;-84
2021/07/19 05:28:13;;;;;;;4.38;1.50;;;;;;;;;;5042385;28;20511;-84
2021/07/19 05:30:43;;;;;;;3.90;1.20;;;;;;;;;;5043759;28;20049;-84
2021/07/19 05:33:09;;;;;;;2.35;0.93;;;;;;;;;;5042143;28;20381;-83
2021/07/19 05:35:37;;;;;;;3.08;1.20;;;;;;;;;;5042481;28;20045;-84
2021/07/19 05:38:04;;;;;;;2.90;0.93;;;;;;;;;;5063324;28;20399;-84
2021/07/19 05:40:31;;;;;;;3.28;0.85;;;;;;;;;;5061799;28;20063;-84
2021/07/19 05:43:01;;;;;;;4.07;0.93;;;;;;;;;;5061753;28;20093;-84
2021/07/19 05:45:28;;;;;;;4.25;0.80;;;;;;;;;;5063526;28;20120;-84
2021/07/19 05:47:55;;;;;;;5.85;0.70;;;;;;;;;;5063901;28;20033;-84
2021/07/19 05:50:22;;;;;;;5.22;0.90;;;;;;;;;;5063491;28;20045;-84
2021/07/19 05:52:48;;;;;;;4.25;1.00;;;;;;;;;;5063170;28;20052;-83
2021/07/19 05:55:15;;;;;;;3.53;0.70;;;;;;;;;;5062507;28;20052;-84
2021/07/19 05:57:42;;;;;;;3.90;0.65;;;;;;;;;;5061541;28;20060;-83
2021/07/19 06:00:14;;;;;;;6.80;0.80;;;;;;;;;;5063716;28;20498;-84
2021/07/19 06:02:41;;;;;;;3.80;1.17;;;;;;;;;;5061167;28;20041;-83
2021/07/19 06:05:08;;;;;;;3.30;0.60;;;;;;;;;;5063245;28;20048;-83
2021/07/19 06:07:35;;;;;;;4.88;0.82;;;;;;;;;;5061900;28;20041;-83
2021/07/19 06:10:05;;;;;;;2.28;0.90;;;;;;;;;;5061714;28;20057;-81
2021/07/19 06:12:32;;;;;;;2.20;0.60;;;;;;;;;;5063171;28;20047;-83
2021/07/19 06:14:58;;;;;;;6.88;0.82;;;;;;;;;;5064057;28;20036;-83
2021/07/19 06:17:25;;;;;;;6.82;1.35;;;;;;;;;;5062591;28;20098;-83
2021/07/19 06:19:51;;;;;;;3.63;1.00;;;;;;;;;;5063576;28;20090;-83
2021/07/19 06:22:18;;;;;;;2.75;0.60;;;;;;;;;;5062880;28;20082;-83
2021/07/19 06:24:45;;;;;;;3.45;1.13;;;;;;;;;;5064058;28;20051;-84
2021/07/19 06:27:11;;;;;;;3.95;0.82;;;;;;;;;;5063950;28;20044;-84
2021/07/19 06:29:38;;;;;;;5.15;0.70;;;;;;;;;;5063759;28;20174;-83
2021/07/19 06:32:05;;;;;;;3.50;0.88;;;;;;;;;;5064226;28;20116;-85
2021/07/19 06:34:31;;;;;;;3.63;1.00;;;;;;;;;;5063834;28;20120;-85
2021/07/19 06:36:58;;;;;;;5.28;1.10;;;;;;;;;;5062524;28;20044;-86
2021/07/19 06:39:24;;;;;;;5.63;1.30;;;;;;;;;;5063615;28;20119;-86
2021/07/19 06:41:51;;;;;;;2.65;0.60;;;;;;;;;;5062811;28;20044;-86
2021/07/19 06:44:17;;;;;;;2.88;0.90;;;;;;;;;;5063657;28;20044;-86
2021/07/19 06:46:44;;;;;;;3.78;0.70;;;;;;;;;;5063774;28;20043;-81
2021/07/19 06:49:10;;;;;;;3.83;0.80;;;;;;;;;;5063682;28;20044;-84
2021/07/19 06:51:40;;;;;;;2.90;1.10;;;;;;;;;;5067283;28;20071;-81
2021/07/19 06:54:09;;;;;;;4.25;0.70;;;;;;;;;;5065414;28;20486;-83
2021/07/19 06:56:36;;;;;;;2.58;0.70;;;;;;;;;;5070238;28;20414;-84
2021/07/19 06:59:02;;;;;;;4.93;0.57;;;;;;;;;;5066431;28;20044;-83
2021/07/19 07:01:33;;;;;;;4.53;0.80;;;;;;;;;;5064555;28;20063;-84
2021/07/19 07:04:00;;;;;;;3.97;0.80;;;;;;;;;;5066126;28;20048;-84
2021/07/19 07:06:28;;;;;;;4.50;0.82;;;;;;;;;;5066806;28;20513;-84
2021/07/19 07:08:57;;;;;;;4.40;1.13;;;;;;;;;;5064850;28;20041;-83
2021/07/19 07:11:24;;;;;;;3.80;1.10;;;;;;;;;;5066136;28;20036;-80
2021/07/19 07:13:50;;;;;;;4.28;0.80;;;;;;;;;;5066899;28;20040;-83
2021/07/19 07:16:17;;;;;;;4.63;1.00;;;;;;;;;;5047825;28;20124;-83
2021/07/19 07:18:43;;;;;;;4.22;1.10;;;;;;;;;;5081608;28;20048;-83
2021/07/19 07:21:10;;;;;;;4.03;0.73;;;;;;;;;;5044869;28;20033;-83
2021/07/19 07:23:36;;;;;;;3.40;0.80;;;;;;;;;;5046195;28;20585;-84
2021/07/19 07:26:03;;;;;;;4.05;0.88;;;;;;;;;;5063011;28;20051;-83
2021/07/19 07:28:30;;;;;;;4.78;1.25;;;;;;;;;;5065624;28;20049;-83
2021/07/19 07:30:56;;;;;;;2.85;1.00;;;;;;;;;;5066591;28;20039;-84
2021/07/19 07:33:23;;;;;;;3.33;1.05;;;;;;;;;;5044067;28;20087;-83
2021/07/19 07:35:51;;;;;;;3.45;1.02;;;;;;;;;;5046439;28;20037;-84
2021/07/19 07:38:18;;;;;;;2.17;1.02;;;;;;;;;;5046069;28;20094;-84
2021/07/19 07:40:48;;;;;;;1.63;0.70;;;;;;;;;;5045670;28;20407;-82
2021/07/19 07:43:15;;;;;;;2.65;1.02;;;;;;;;;;5045937;28;20116;-84
2021/07/19 07:45:42;;;;;;;4.95;1.13;;;;;;;;;;5065536;28;20053;-82
2021/07/19 07:48:08;;;;;;;4.88;1.17;;;;;;;;;;5065269;28;20052;-80
2021/07/19 07:50:35;;;;;;;2.70;1.00;;;;;;;;;;5064466;28;20036;-83
2021/07/19 07:53:01;;;;;;;4.00;0.70;;;;;;;;;;5065517;28;20483;-84
2021/07/19 07:55:28;;;;;;;4.35;0.77;;;;;;;;;;5064096;28;20437;-83
2021/07/19 07:57:54;;;;;;;2.88;0.85;;;;;;;;;;5043932;28;20065;-84
2021/07/19 08:00:21;;;;;;;8.52;1.15;;;;;;;;;;5065743;28;20040;-83
2021/07/19 08:02:47;;;;;;;6.40;1.00;;;;;;;;;;5064874;28;20041;-83
2021/07/19 08:05:14;;;;;;;3.15;0.75;;;;;;;;;;5065568;28;20052;-83
2021/07/19 08:07:41;;;;;;;5.43;1.00;;;;;;;;;;5063242;28;20040;-81
2021/07/19 08:10:09;;;;;;;2.00;0.60;;;;;;;;;;5063208;28;20045;-82
2021/07/19 08:12:36;;;;;;;3.05;0.90;;;;;;;;;;5047054;28;20410;-81
2021/07/19 08:15:04;;;;;;;4.57;1.33;;;;;;;;;;5045783;28;20043;-82
2021/07/19 08:17:31;;;;;;;4.68;1.23;;;;;;;;;;5064636;28;20045;-81
2021/07/19 08:19:58;;;;;;;2.65;0.70;;;;;;;;;;5064980;28;20036;-82
2021/07/19 08:22:26;;;;;;;3.00;1.02;;;;;;;;;;5064535;28;20074;-82
2021/07/19 08:24:53;;;;;;;3.67;1.10;;;;;;;;;;5062672;28;20041;-81
2021/07/19 08:27:19;;;;;;;4.18;0.60;;;;;;;;;;5065101;28;20037;-82
2021/07/19 08:29:49;;;;;;;3.25;0.80;;;;;;;;;;5043300;28;20041;-82
2021/07/19 08:32:16;;;;;;;4.22;0.93;;;;;;;;;;5044598;28;20219;-84
2021/07/19 08:34:46;;;;;;;4.85;1.00;;;;;;;;;;5045243;28;20466;-84
2021/07/19 08:37:13;;;;;;;2.90;0.70;;;;;;;;;;5063195;28;20040;-84
2021/07/19 08:39:45;;;;;;;3.72;0.68;;;;;;;;;;5047691;28;20057;-81
2021/07/19 08:42:13;;;;;;;4.97;1.10;;;;;;;;;;5064367;28;20121;-84
2021/07/19 08:44:41;;;;;;;3.05;0.70;;;;;;;;;;5065050;28;20090;-85
2021/07/19 08:47:13;;;;;;;4.25;1.15;;;;;;;;;;5063292;28;20059;-85
2021/07/19 08:49:41;;;;;;;5.55;1.08;;;;;;;;;;5045862;28;20047;-85
2021/07/19 08:52:08;;;;;;;4.30;1.08;;;;;;;;;;5064751;28;20518;-82
2021/07/19 08:54:38;;;;;;;5.57;1.42;;;;;;;;;;5063922;28;20043;-85
2021/07/19 08:57:06;;;;;;;9.50;1.42;;;;;;;;;;5063717;28;20054;-86
2021/07/19 08:59:33;;;;;;;4.65;1.10;;;;;;;;;;5061834;28;20110;-84
2021/07/19 09:02:04;;;;;;;4.35;0.75;;;;;;;;;;5065253;28;20044;-84
2021/07/19 09:04:40;;;;;;;4.60;1.00;;;;;;;;;;5042449;28;20045;-84
2021/07/19 09:07:07;;;;;;;3.63;1.20;;;;;;;;;;5063988;28;20518;-83
2021/07/19 09:09:34;;;;;;;4.78;1.05;;;;;;;;;;5059019;28;20048;-86
2021/07/19 09:12:04;;;;;;;2.47;1.20;;;;;;;;;;5064491;28;20055;-85
2021/07/19 09:14:32;;;;;;;2.90;0.70;;;;;;;;;;5042603;28;20036;-84
2021/07/19 09:16:58;;;;;;;3.67;0.85;;;;;;;;;;5044433;28;20094;-82
2021/07/19 09:19:27;;;;;;;8.82;1.40;;;;;;;;;;5044793;28;20041;-84
2021/07/19 09:21:59;;;;;;;3.75;0.98;;;;;;;;;;5044249;28;20072;-83
2021/07/19 09:24:28;;;;;;;4.63;1.25;;;;;;;;;;5062991;28;20502;-84
2021/07/19 09:26:56;;;;;;;4.07;1.13;;;;;;;;;;5062527;28;20406;-86
2021/07/19 09:29:25;;;;;;;4.88;1.05;;;;;;;;;;5063881;28;20037;-86
2021/07/19 09:31:59;;;;;;;5.78;1.10;;;;;;;;;;5063331;28;20098;-85
2021/07/19 09:34:28;;;;;;;1.58;0.85;;;;;;;;;;5044222;28;20087;-84
2021/07/19 09:37:05;;;;;;;3.53;0.80;;;;;;;;;;5047085;28;20101;-83
2021/07/19 09:39:33;;;;;;;4.18;1.35;;;;;;;;;;5064127;28;20051;-82
2021/07/19 09:42:19;;;;;;;3.53;1.20;;;;;;;;;;5063633;28;20044;-81
2021/07/19 09:44:58;;;;;;;2.65;1.05;;;;;;;;;;5043559;28;20441;-81
2021/07/19 09:47:41;;;;;;;2.22;0.90;;;;;;;;;;5043217;28;20120;-81
2021/07/19 09:50:13;;;;;;;3.92;1.88;;;;;;;;;;5042691;28;20499;-82
2021/07/19 09:52:43;;;;;;;3.15;1.23;;;;;;;;;;5075149;28;20037;-82
2021/07/19 09:55:27;;;;;;;5.13;1.92;;;;;;;;;;5042867;28;20041;-80
2021/07/19 09:57:58;;;;;;;7.82;2.35;;;;;;;;;;5042867;28;20037;-83
2021/07/19 10:00:26;;;;;;;4.47;1.27;;;;;;;;;;5044690;28;20045;-82
2021/07/19 10:02:53;;;;;;;6.22;1.80;;;;;;;;;;5042738;28;20123;-81
2021/07/19 10:05:30;;;;;;;5.57;2.20;;;;;;;;;;5041446;28;20056;-80
2021/07/19 10:08:01;;;;;;;5.22;2.00;;;;;;;;;;5041551;28;20033;-82
2021/07/19 10:10:39;;;;;;;7.53;2.50;;;;;;;;;;5041291;28;20033;-81
2021/07/19 10:13:08;;;;;;;6.07;2.30;;;;;;;;;;5043726;28;20041;-84
2021/07/19 10:15:37;;;;;;;5.97;2.58;;;;;;;;;;5042963;28;20081;-83
2021/07/19 10:18:09;;;;;;;5.53;2.42;;;;;;;;;;5042997;28;20128;-81
2021/07/19 10:20:38;;;;;;;5.18;1.90;;;;;;;;;;5041185;28;20037;-81
2021/07/19 10:23:06;;;;;;;5.13;1.35;;;;;;;;;;5044248;28;20132;-82
2021/07/19 10:25:37;;;;;;;3.50;1.42;;;;;;;;;;5046661;28;20045;-84
2021/07/19 10:28:05;;;;;;;1.75;0.85;;;;;;;;;;5046633;28;20411;-84
2021/07/19 10:30:32;;;;;;;4.57;1.30;;;;;;;;;;5045851;28;20529;-82
2021/07/19 10:32:59;;;;;;;5.35;1.10;;;;;;;;;;5065003;28;20620;-84
2021/07/19 10:35:30;;;;;;;3.47;1.08;;;;;;;;;;5065351;28;20410;-84
2021/07/19 10:38:04;;;;;;;4.30;0.93;;;;;;;;;;5048965;28;20494;-83
2021/07/19 10:40:36;;;;;;;5.88;1.20;;;;;;;;;;5067651;28;20110;-84
2021/07/19 10:43:13;;;;;;;3.80;1.20;;;;;;;;;;5066822;28;20044;-84
2021/07/19 10:45:44;;;;;;;4.88;1.42;;;;;;;;;;5067134;28;20030;-84
2021/07/19 10:48:26;;;;;;;4.53;1.33;;;;;;;;;;5067193;28;20114;-85
2021/07/19 10:50:54;;;;;;;3.80;0.95;;;;;;;;;;5067460;28;20403;-85
2021/07/19 10:53:23;;;;;;;4.97;1.00;;;;;;;;;;5065605;28;20049;-85
2021/07/19 10:56:11;;;;;;;3.83;1.30;;;;;;;;;;5066155;28;20591;-85
2021/07/19 10:58:49;;;;;;;5.90;1.27;;;;;;;;;;5067549;28;20094;-84
2021/07/19 11:01:34;;;;;;;5.43;1.35;;;;;;;;;;5065407;28;20838;-86
2021/07/19 11:04:13;;;;;;;3.47;1.00;;;;;;;;;;5066541;28;20403;-83
2021/07/19 11:06:47;;;;;;;3.80;1.30;;;;;;;;;;5065328;28;20082;-84
2021/07/19 11:09:14;;;;;;;5.20;1.15;;;;;;;;;;5065197;28;20102;-84
2021/07/19 11:11:43;;;;;;;4.93;1.35;;;;;;;;;;5065457;28;20036;-86
2021/07/19 11:14:24;;;;;;;7.03;1.50;;;;;;;;;;5066350;28;20126;-84
2021/07/19 11:16:53;;;;;;;9.57;1.80;;;;;;;;;;5067105;28;20036;-85
2021/07/19 11:19:39;;;;;;;5.20;1.40;;;;;;;;;;5066694;28;20051;-86
2021/07/19 11:22:26;;;;;;;4.97;1.25;;;;;;;;;;5067061;28;20075;-86
2021/07/19 11:25:14;;;;;;;11.68;2.55;;;;;;;;;;5047142;28;20406;-86
2021/07/19 11:27:48;;;;;;;8.20;2.10;;;;;;;;;;5044671;28;20045;-86
2021/07/19 11:30:22;;;;;;;9.25;1.92;;;;;;;;;;5047555;28;20045;-87
2021/07/19 11:32:50;;;;;;;3.15;1.73;;;;;;;;;;5066523;28;20525;-83
2021/07/19 11:35:20;;;;;;;4.43;1.80;;;;;;;;;;5066002;28;20041;-85
2021/07/19 11:37:51;;;;;;;3.38;1.20;;;;;;;;;;5066480;28;20033;-87
2021/07/19 11:40:29;;;;;;;6.95;1.60;;;;;;;;;;5066350;28;21124;-85
2021/07/19 11:43:07;;;;;;;8.43;1.42;;;;;;;;;;5063483;28;20040;-85
2021/07/19 11:45:39;;;;;;;8.23;2.20;;;;;;;;;;5065967;28;20040;-85
2021/07/19 11:48:06;;;;;;;7.03;2.13;;;;;;;;;;5065953;28;20036;-85
2021/07/19 11:50:33;;;;;;;7.88;2.10;;;;;;;;;;5065463;28;20059;-84
2021/07/19 11:52:59;;;;;;;6.20;1.67;;;;;;;;;;5066727;28;20040;-85
2021/07/19 11:55:26;;;;;;;5.53;1.80;;;;;;;;;;5065863;28;20045;-86
2021/07/19 11:57:55;;;;;;;4.95;1.35;;;;;;;;;;5066621;28;20042;-84
2021/07/19 12:00:29;;;;;;;2.53;1.10;;;;;;;;;;5066170;28;20087;-85
2021/07/19 12:03:03;;;;;;;6.28;1.60;;;;;;;;;;5063922;28;20043;-85
2021/07/19 12:05:31;;;;;;;5.93;1.08;;;;;;;;;;5053149;28;20043;-83
2021/07/19 12:08:02;;;;;;;5.93;1.95;;;;;;;;;;5055633;28;20037;-85
2021/07/19 12:10:29;;;;;;;6.53;1.65;;;;;;;;;;5064076;28;20500;-85
2021/07/19 12:12:56;;;;;;;4.07;1.52;;;;;;;;;;5064510;28;20064;-85
2021/07/19 12:15:23;;;;;;;4.70;1.25;;;;;;;;;;5064356;28;20040;-85
2021/07/19 12:47:57;;;;;;;5.45;2.42;;;;;;;;;;5016149;27;2938883;-87
2021/07/19 12:50:24;;;;;;;6.20;2.72;;;;;;;;;;5118952;27;20061;-87
2021/07/19 12:52:50;;;;;;;6.13;1.77;;;;;;;;;;5124022;27;20047;-87
2021/07/19 12:55:28;;;;;;;8.90;3.83;;;;;;;;;;5122026;27;20031;-87
2021/07/19 12:57:56;;;;;;;11.15;3.13;;;;;;;;;;5121996;27;20053;-87
2021/07/19 13:00:26;;;;;;;;;;;;;;;;;;5122962;27;20122;-86
2021/07/19 13:03:27;;;;;;;5.53;2.00;;;;;;;;;;5122189;27;20384;-86
2021/07/19 13:05:53;;;;;;;5.70;1.85;;;;;;;;;;5120980;27;20047;-86
2021/07/19 13:08:30;;;;;;;9.75;2.45;;;;;;;;;;5123959;27;20544;-87
2021/07/19 13:11:13;;;;;;;6.68;2.40;;;;;;;;;;5123596;27;20027;-90
2021/07/19 13:13:40;;;;;;;11.20;2.83;;;;;;;;;;5124152;27;20140;-91
2021/07/19 13:16:07;;;;;;;8.95;2.35;;;;;;;;;;5124113;27;20541;-90
2021/07/19 13:18:35;;;;;;;4.90;1.70;;;;;;;;;;5124196;27;20031;-90
2021/07/19 13:21:12;;;;;;;7.07;1.58;;;;;;;;;;5122096;27;20031;-88
2021/07/19 13:23:40;;;;;;;6.63;1.75;;;;;;;;;;5123479;27;20043;-90
2021/07/19 13:26:10;;;;;;;;;;;;;;;;;;5097663;27;20040;-89
2021/07/19 13:28:39;;;;;;;7.38;2.10;;;;;;;;;;5082516;28;19917;-91
2021/07/19 13:31:06;;;;;;;;;;;;;;;;;;5077654;28;20045;-89
2021/07/19 13:33:33;;;;;;;4.82;1.70;;;;;;;;;;5080144;28;19979;-90
2021/07/19 13:36:00;;;;;;;9.05;1.88;;;;;;;;;;5095547;28;20044;-83
2021/07/19 13:38:43;;;;;;;4.20;1.77;;;;;;;;;;5074742;28;20083;-90
2021/07/19 13:41:15;;;;;;;8.65;2.70;;;;;;;;;;5087236;28;20494;-89
2021/07/19 13:43:43;;;;;;;7.82;3.03;;;;;;;;;;5096591;28;20035;-87
2021/07/19 13:46:10;;;;;;;10.18;4.07;;;;;;;;;;5068234;28;20067;-89
2021/07/19 13:48:38;;;;;;;12.05;5.15;;;;;;;;;;5077808;28;20036;-91
2021/07/19 13:51:05;;;;;;;10.00;2.80;;;;;;;;;;5070415;28;20494;-87
2021/07/19 13:53:35;;;;;;;5.43;2.45;;;;;;;;;;5057251;28;21137;-88
2021/07/19 13:56:04;;;;;;;6.05;1.73;;;;;;;;;;5086758;28;20075;-89
2021/07/19 13:58:30;;;;;;;8.18;2.17;;;;;;;;;;5079655;28;20089;-87
2021/07/19 14:00:59;;;;;;;4.88;1.85;;;;;;;;;;5070971;28;20036;-88
2021/07/19 14:03:29;;;;;;;11.20;3.28;;;;;;;;;;5086559;28;20485;-88
2021/07/19 14:05:55;;;;;;;11.40;2.60;;;;;;;;;;5068108;28;20044;-89
2021/07/19 14:08:23;;;;;;;10.10;2.00;;;;;;;;;;5055060;28;20048;-84
2021/07/19 14:10:50;;;;;;;5.55;1.67;;;;;;;;;;5086179;28;20035;-89
2021/07/19 14:13:17;;;;;;;6.18;2.00;;;;;;;;;;5102887;28;20043;-90
2021/07/19 14:15:43;;;;;;;7.65;2.38;;;;;;;;;;5071851;28;20097;-93
2021/07/19 14:18:11;;;;;;;9.07;3.55;;;;;;;;;;5083750;28;20047;-90
2021/07/19 14:20:39;;;;;;;9.85;3.13;;;;;;;;;;5065561;28;20497;-88
2021/07/19 14:23:06;;;;;;;6.95;2.22;;;;;;;;;;5066294;28;20517;-88
2021/07/19 14:25:33;;;;;;;6.30;1.70;;;;;;;;;;5061626;28;20431;-87
2021/07/19 14:28:01;;;;;;;6.53;2.10;;;;;;;;;;5078002;28;20122;-87
2021/07/19 14:30:28;;;;;;;6.88;1.90;;;;;;;;;;5087301;28;20470;-86
2021/07/19 14:32:56;;;;;;;6.38;1.52;;;;;;;;;;5088512;28;20040;-86
2021/07/19 14:35:23;;;;;;;7.53;2.20;;;;;;;;;;5078576;28;20059;-86
2021/07/19 14:37:51;;;;;;;10.77;2.60;;;;;;;;;;5044543;28;20486;-87
2021/07/19 14:40:20;;;;;;;8.55;3.00;;;;;;;;;;5081163;28;20868;-88
2021/07/19 14:42:48;;;;;;;8.85;6.50;;;;;;;;;;5068581;28;20051;-87
2021/07/19 14:45:16;;;;;;;8.40;4.57;;;;;;;;;;5061796;28;20032;-84
2021/07/19 14:47:44;;;;;;;8.68;3.03;;;;;;;;;;5066551;28;20082;-88
2021/07/19 14:50:12;;;;;;;9.00;3.60;;;;;;;;;;5068542;28;20040;-88
2021/07/19 14:52:39;;;;;;;6.45;2.22;;;;;;;;;;5067928;28;20044;-89
2021/07/19 14:55:08;;;;;;;8.88;2.75;;;;;;;;;;5090748;28;20067;-89
2021/07/19 14:57:35;;;;;;;10.35;4.00;;;;;;;;;;5069204;28;20490;-87
2021/07/19 15:00:03;;;;;;;6.68;3.17;;;;;;;;;;5065083;28;20051;-85
2021/07/19 15:02:30;;;;;;;9.02;2.83;;;;;;;;;;5084155;28;20501;-84
2021/07/19 15:04:56;;;;;;;14.15;6.18;;;;;;;;;;5072703;28;20438;-87
2021/07/19 15:07:23;;;;;;;11.20;5.10;;;;;;;;;;5073913;28;20123;-86
2021/07/19 15:09:49;;;;;;;8.65;4.10;;;;;;;;;;5077789;28;20040;-87
2021/07/19 15:12:16;;;;;;;9.90;3.35;;;;;;;;;;5074977;28;20039;-86
2021/07/19 15:14:42;;;;;;;9.85;3.80;;;;;;;;;;5097277;28;20040;-87
2021/07/19 15:17:09;;;;;;;10.60;4.35;;;;;;;;;;5093900;28;20075;-84
2021/07/19 15:19:35;;;;;;;10.95;3.97;;;;;;;;;;5067428;28;20043;-90
2021/07/19 15:22:02;;;;;;;7.03;2.65;;;;;;;;;;5101110;28;20283;-86
2021/07/19 15:24:29;;;;;;;8.85;3.53;;;;;;;;;;5070591;28;20041;-85
2021/07/19 15:26:56;;;;;;;10.63;3.30;;;;;;;;;;5083641;28;20040;-89
2021/07/19 15:29:22;;;;;;;9.57;3.13;;;;;;;;;;5090379;28;20063;-85
2021/07/19 15:31:49;;;;;;;7.13;3.38;;;;;;;;;;5082924;28;20046;-86
2021/07/19 15:34:16;;;;;;;7.03;3.42;;;;;;;;;;5102669;28;20032;-86
2021/07/19 15:36:46;;;;;;;10.18;3.50;;;;;;;;;;5093710;28;20040;-87
2021/07/19 15:39:12;;;;;;;10.35;4.22;;;;;;;;;;5073913;28;20040;-86
2021/07/19 15:41:39;;;;;;;6.78;3.17;;;;;;;;;;5079694;28;20044;-87
2021/07/19 15:44:05;;;;;;;6.88;2.58;;;;;;;;;;5072701;28;20426;-84
2021/07/19 15:46:34;;;;;;;7.35;2.45;;;;;;;;;;5082721;28;20059;-86
2021/07/19 15:49:01;;;;;;;9.27;3.10;;;;;;;;;;5063205;28;20118;-85
2021/07/19 15:51:28;;;;;;;5.68;2.75;;;;;;;;;;5082506;28;20053;-90
2021/07/19 15:53:55;;;;;;;12.63;4.82;;;;;;;;;;5087303;28;20039;-87
2021/07/19 15:56:23;;;;;;;17.35;8.35;;;;;;;;;;5098855;27;20031;-83
2021/07/19 15:58:49;;;;;;;7.93;2.40;;;;;;;;;;5123759;27;20046;-89